메인 페이지
METAR-TAF:

METAR-TAF

공항 :

떤선녓 국제공항

호찌민, 베트남

위도: 10-49N, 경도: 106-40E, 고도: 19m

현재 날씨관측

예보는 23분 전, 20:30시(UTC)에 발표되었습니다.
5kt
온도 26°C
습도 94%
기압 1006 hPa
시정 10km 이상
고도 1500ft 상공 구름 조금
고도 5000ft 상공 구름 많음

METAR: VVTS 202030Z 26005KT 9999 FEW015 BKN050 26/25 Q1006 NOSIG

시각: 03:53 (20:53 UTC)

예보

예보는 3 시간 53분 전, 17:00시(UTC)에 발표되었습니다.
예보 대상 시간: 20일 18시부터 21일 24시까지 (UTC)
10kt
시정 10km 이상
고도 1700ft 상공 구름 보통
일시적
21일 07시부터 21일 11시까지 (UTC)
고도 1500ft 상공 구름 보통
고도 1700ft 상공 구름 조금, 적란운.
뇌우

TAF: VVTS 201700Z 2018/2124 27010KT 9999 SCT017 TEMPO 2107/2111 TS SCT015 FEW017CB

4,000개 이상의 공항 관측 자료 및 예보 (METAR 및 TAF 보고).

지도상에서 검색 가능한 기상관측소가 노란 점과 빨간 점으로 표시되어 있습니다.

기상관측소 명을 보려면 표시 위로 마우스를 이동하세요.

날씨 관측과 예보를 보려면 클릭하세요.

지도 변경 : 확대하려면 엑스 표시가 있는 녹색 버튼, 축소하려면 빼기 표시가 있는 녹색 버튼, 다음 페이지의 지도를 보려면 녹색 화살표를 클릭하세요.


METAR-TAF: